sensor_id;sensor_type;location;lat;lon;timestamp;P1;durP1;ratioP1;P2;durP2;ratioP2
65599;SDS011;52272;-29.642;-50.764;2022-12-07T00:00:20;11.73;;;3.25;;
65599;SDS011;52272;-29.642;-50.764;2022-12-07T00:02:50;11.75;;;2.50;;
65599;SDS011;52272;-29.642;-50.764;2022-12-07T00:05:20;9.18;;;2.70;;
65599;SDS011;52272;-29.642;-50.764;2022-12-07T00:10:21;5.82;;;2.88;;
65599;SDS011;52272;-29.642;-50.764;2022-12-07T00:12:51;8.10;;;2.65;;
65599;SDS011;52272;-29.642;-50.764;2022-12-07T00:15:21;6.50;;;2.63;;
65599;SDS011;52272;-29.642;-50.764;2022-12-07T00:17:54;6.50;;;3.10;;
65599;SDS011;52272;-29.642;-50.764;2022-12-07T00:20:24;7.78;;;2.78;;
65599;SDS011;52272;-29.642;-50.764;2022-12-07T00:22:54;5.88;;;2.78;;
65599;SDS011;52272;-29.642;-50.764;2022-12-07T00:25:25;11.40;;;3.53;;
65599;SDS011;52272;-29.642;-50.764;2022-12-07T00:27:55;11.82;;;3.40;;
65599;SDS011;52272;-29.642;-50.764;2022-12-07T00:30:27;7.72;;;3.10;;
65599;SDS011;52272;-29.642;-50.764;2022-12-07T00:32:58;13.02;;;3.70;;
65599;SDS011;52272;-29.642;-50.764;2022-12-07T00:37:57;11.60;;;3.70;;
65599;SDS011;52272;-29.642;-50.764;2022-12-07T00:40:27;9.25;;;3.60;;
65599;SDS011;52272;-29.642;-50.764;2022-12-07T00:42:58;8.40;;;3.17;;
65599;SDS011;52272;-29.642;-50.764;2022-12-07T00:45:29;9.73;;;3.53;;
65599;SDS011;52272;-29.642;-50.764;2022-12-07T00:48:00;10.18;;;3.92;;
65599;SDS011;52272;-29.642;-50.764;2022-12-07T00:50:31;8.63;;;4.20;;
65599;SDS011;52272;-29.642;-50.764;2022-12-07T00:53:01;6.15;;;3.45;;
65599;SDS011;52272;-29.642;-50.764;2022-12-07T00:55:33;9.52;;;4.03;;
65599;SDS011;52272;-29.642;-50.764;2022-12-07T00:58:04;8.35;;;3.83;;
65599;SDS011;52272;-29.642;-50.764;2022-12-07T01:00:41;8.95;;;4.28;;
65599;SDS011;52272;-29.642;-50.764;2022-12-07T01:03:13;11.70;;;4.30;;
65599;SDS011;52272;-29.642;-50.764;2022-12-07T01:05:52;10.40;;;3.92;;
65599;SDS011;52272;-29.642;-50.764;2022-12-07T01:08:24;13.95;;;4.05;;
65599;SDS011;52272;-29.642;-50.764;2022-12-07T01:11:00;5.38;;;3.30;;
65599;SDS011;52272;-29.642;-50.764;2022-12-07T01:13:35;7.82;;;3.70;;
65599;SDS011;52272;-29.642;-50.764;2022-12-07T01:16:11;5.30;;;3.42;;
65599;SDS011;52272;-29.642;-50.764;2022-12-07T01:18:45;7.30;;;3.47;;
65599;SDS011;52272;-29.642;-50.764;2022-12-07T01:21:21;6.55;;;3.20;;
65599;SDS011;52272;-29.642;-50.764;2022-12-07T01:24:02;10.98;;;4.20;;
65599;SDS011;52272;-29.642;-50.764;2022-12-07T01:26:34;7.85;;;3.78;;
65599;SDS011;52272;-29.642;-50.764;2022-12-07T01:29:04;11.73;;;4.20;;
65599;SDS011;52272;-29.642;-50.764;2022-12-07T01:31:35;9.80;;;4.35;;
65599;SDS011;52272;-29.642;-50.764;2022-12-07T01:36:37;13.52;;;4.30;;
65599;SDS011;52272;-29.642;-50.764;2022-12-07T01:39:09;13.73;;;3.60;;
65599;SDS011;52272;-29.642;-50.764;2022-12-07T01:41:45;11.15;;;3.80;;
65599;SDS011;52272;-29.642;-50.764;2022-12-07T01:46:54;6.70;;;3.58;;
65599;SDS011;52272;-29.642;-50.764;2022-12-07T01:52:18;10.75;;;4.50;;
65599;SDS011;52272;-29.642;-50.764;2022-12-07T01:54:59;10.00;;;4.78;;
65599;SDS011;52272;-29.642;-50.764;2022-12-07T01:57:36;10.32;;;4.05;;
65599;SDS011;52272;-29.642;-50.764;2022-12-07T02:00:10;9.73;;;3.58;;
65599;SDS011;52272;-29.642;-50.764;2022-12-07T02:02:45;12.93;;;3.65;;
65599;SDS011;52272;-29.642;-50.764;2022-12-07T02:05:21;13.32;;;5.18;;
65599;SDS011;52272;-29.642;-50.764;2022-12-07T02:07:54;9.68;;;4.90;;
65599;SDS011;52272;-29.642;-50.764;2022-12-07T02:10:27;8.98;;;5.10;;
65599;SDS011;52272;-29.642;-50.764;2022-12-07T02:13:02;12.30;;;4.75;;
65599;SDS011;52272;-29.642;-50.764;2022-12-07T02:30:31;11.73;;;4.47;;
65599;SDS011;52272;-29.642;-50.764;2022-12-07T02:36:15;8.40;;;3.58;;
65599;SDS011;52272;-29.642;-50.764;2022-12-07T02:39:02;12.68;;;3.90;;
65599;SDS011;52272;-29.642;-50.764;2022-12-07T02:42:01;11.32;;;4.88;;
65599;SDS011;52272;-29.642;-50.764;2022-12-07T02:44:39;11.10;;;3.58;;
65599;SDS011;52272;-29.642;-50.764;2022-12-07T02:47:10;7.82;;;3.67;;
65599;SDS011;52272;-29.642;-50.764;2022-12-07T02:49:45;6.07;;;3.40;;
65599;SDS011;52272;-29.642;-50.764;2022-12-07T02:52:16;9.18;;;4.53;;
65599;SDS011;52272;-29.642;-50.764;2022-12-07T02:54:46;9.85;;;3.72;;
65599;SDS011;52272;-29.642;-50.764;2022-12-07T03:00:16;6.60;;;3.90;;
65599;SDS011;52272;-29.642;-50.764;2022-12-07T03:02:53;12.68;;;5.20;;
65599;SDS011;52272;-29.642;-50.764;2022-12-07T03:08:28;11.02;;;4.10;;
65599;SDS011;52272;-29.642;-50.764;2022-12-07T03:13:47;7.72;;;3.85;;
65599;SDS011;52272;-29.642;-50.764;2022-12-07T03:16:37;12.25;;;4.28;;
65599;SDS011;52272;-29.642;-50.764;2022-12-07T03:19:15;8.55;;;3.70;;
65599;SDS011;52272;-29.642;-50.764;2022-12-07T03:21:57;8.52;;;4.07;;
65599;SDS011;52272;-29.642;-50.764;2022-12-07T03:24:51;7.90;;;3.60;;
65599;SDS011;52272;-29.642;-50.764;2022-12-07T03:27:32;8.27;;;4.05;;
65599;SDS011;52272;-29.642;-50.764;2022-12-07T03:30:08;12.93;;;4.47;;
65599;SDS011;52272;-29.642;-50.764;2022-12-07T03:41:09;10.88;;;4.00;;
65599;SDS011;52272;-29.642;-50.764;2022-12-07T03:43:46;10.05;;;4.10;;
65599;SDS011;52272;-29.642;-50.764;2022-12-07T03:51:25;11.55;;;3.78;;
65599;SDS011;52272;-29.642;-50.764;2022-12-07T03:57:08;10.10;;;3.15;;
65599;SDS011;52272;-29.642;-50.764;2022-12-07T03:59:41;8.35;;;3.67;;
65599;SDS011;52272;-29.642;-50.764;2022-12-07T04:02:12;8.40;;;3.80;;
65599;SDS011;52272;-29.642;-50.764;2022-12-07T04:04:43;8.18;;;3.38;;
65599;SDS011;52272;-29.642;-50.764;2022-12-07T04:07:13;8.07;;;3.08;;
65599;SDS011;52272;-29.642;-50.764;2022-12-07T04:09:46;9.13;;;3.70;;
65599;SDS011;52272;-29.642;-50.764;2022-12-07T04:12:16;7.50;;;3.38;;
65599;SDS011;52272;-29.642;-50.764;2022-12-07T04:14:47;10.43;;;3.15;;
65599;SDS011;52272;-29.642;-50.764;2022-12-07T04:17:17;6.63;;;2.50;;
65599;SDS011;52272;-29.642;-50.764;2022-12-07T04:19:47;9.27;;;2.83;;
65599;SDS011;52272;-29.642;-50.764;2022-12-07T04:24:46;7.97;;;3.08;;
65599;SDS011;52272;-29.642;-50.764;2022-12-07T04:27:19;9.70;;;2.72;;
65599;SDS011;52272;-29.642;-50.764;2022-12-07T04:29:50;5.20;;;2.80;;
65599;SDS011;52272;-29.642;-50.764;2022-12-07T04:32:21;4.45;;;2.83;;
65599;SDS011;52272;-29.642;-50.764;2022-12-07T04:34:52;6.35;;;2.58;;
65599;SDS011;52272;-29.642;-50.764;2022-12-07T04:37:25;6.13;;;1.95;;
65599;SDS011;52272;-29.642;-50.764;2022-12-07T04:39:56;7.90;;;2.53;;
65599;SDS011;52272;-29.642;-50.764;2022-12-07T04:42:27;4.95;;;2.17;;
65599;SDS011;52272;-29.642;-50.764;2022-12-07T04:44:57;5.95;;;2.45;;
65599;SDS011;52272;-29.642;-50.764;2022-12-07T04:47:27;9.02;;;2.63;;
65599;SDS011;52272;-29.642;-50.764;2022-12-07T04:49:57;6.38;;;2.50;;
65599;SDS011;52272;-29.642;-50.764;2022-12-07T04:52:28;8.55;;;3.55;;
65599;SDS011;52272;-29.642;-50.764;2022-12-07T04:57:27;10.45;;;3.35;;
65599;SDS011;52272;-29.642;-50.764;2022-12-07T04:59:58;9.00;;;2.83;;
65599;SDS011;52272;-29.642;-50.764;2022-12-07T05:02:29;3.90;;;2.97;;
65599;SDS011;52272;-29.642;-50.764;2022-12-07T05:04:59;7.20;;;2.92;;
65599;SDS011;52272;-29.642;-50.764;2022-12-07T05:07:30;4.30;;;3.40;;
65599;SDS011;52272;-29.642;-50.764;2022-12-07T05:10:00;6.90;;;3.35;;
65599;SDS011;52272;-29.642;-50.764;2022-12-07T05:12:31;15.13;;;3.22;;
65599;SDS011;52272;-29.642;-50.764;2022-12-07T05:15:01;8.48;;;2.90;;
65599;SDS011;52272;-29.642;-50.764;2022-12-07T05:17:32;10.52;;;3.78;;
65599;SDS011;52272;-29.642;-50.764;2022-12-07T05:22:33;9.73;;;4.47;;
65599;SDS011;52272;-29.642;-50.764;2022-12-07T05:25:03;13.45;;;5.95;;
65599;SDS011;52272;-29.642;-50.764;2022-12-07T05:27:34;9.60;;;5.32;;
65599;SDS011;52272;-29.642;-50.764;2022-12-07T05:32:34;16.63;;;6.45;;
65599;SDS011;52272;-29.642;-50.764;2022-12-07T05:35:05;15.73;;;6.70;;
65599;SDS011;52272;-29.642;-50.764;2022-12-07T05:37:36;18.23;;;6.32;;
65599;SDS011;52272;-29.642;-50.764;2022-12-07T05:40:08;16.52;;;7.05;;
65599;SDS011;52272;-29.642;-50.764;2022-12-07T05:42:39;19.25;;;7.07;;
65599;SDS011;52272;-29.642;-50.764;2022-12-07T05:45:10;10.15;;;6.28;;
65599;SDS011;52272;-29.642;-50.764;2022-12-07T05:47:44;12.15;;;5.03;;
65599;SDS011;52272;-29.642;-50.764;2022-12-07T05:50:14;12.40;;;6.43;;
65599;SDS011;52272;-29.642;-50.764;2022-12-07T05:52:59;16.27;;;6.63;;
65599;SDS011;52272;-29.642;-50.764;2022-12-07T05:55:29;16.50;;;5.30;;
65599;SDS011;52272;-29.642;-50.764;2022-12-07T05:58:00;15.95;;;6.28;;
65599;SDS011;52272;-29.642;-50.764;2022-12-07T06:00:48;13.23;;;5.68;;
65599;SDS011;52272;-29.642;-50.764;2022-12-07T06:03:19;11.13;;;4.78;;
65599;SDS011;52272;-29.642;-50.764;2022-12-07T06:08:21;10.85;;;4.07;;
65599;SDS011;52272;-29.642;-50.764;2022-12-07T06:13:43;12.25;;;5.15;;
65599;SDS011;52272;-29.642;-50.764;2022-12-07T06:16:14;15.95;;;6.82;;
65599;SDS011;52272;-29.642;-50.764;2022-12-07T06:18:45;10.20;;;5.25;;
65599;SDS011;52272;-29.642;-50.764;2022-12-07T06:23:44;16.88;;;7.38;;
65599;SDS011;52272;-29.642;-50.764;2022-12-07T06:26:15;18.77;;;6.95;;
65599;SDS011;52272;-29.642;-50.764;2022-12-07T06:28:45;17.58;;;6.60;;
65599;SDS011;52272;-29.642;-50.764;2022-12-07T06:31:16;9.35;;;4.10;;
65599;SDS011;52272;-29.642;-50.764;2022-12-07T06:33:46;8.07;;;4.40;;
65599;SDS011;52272;-29.642;-50.764;2022-12-07T06:36:16;11.25;;;6.53;;
65599;SDS011;52272;-29.642;-50.764;2022-12-07T06:41:24;12.52;;;6.53;;
65599;SDS011;52272;-29.642;-50.764;2022-12-07T06:43:54;10.77;;;6.15;;
65599;SDS011;52272;-29.642;-50.764;2022-12-07T06:46:25;13.20;;;6.28;;
65599;SDS011;52272;-29.642;-50.764;2022-12-07T06:48:58;12.68;;;6.25;;
65599;SDS011;52272;-29.642;-50.764;2022-12-07T06:51:28;8.75;;;5.97;;
65599;SDS011;52272;-29.642;-50.764;2022-12-07T06:53:59;11.18;;;5.93;;
65599;SDS011;52272;-29.642;-50.764;2022-12-07T06:56:29;13.98;;;6.20;;
65599;SDS011;52272;-29.642;-50.764;2022-12-07T06:58:59;10.65;;;5.15;;
65599;SDS011;52272;-29.642;-50.764;2022-12-07T07:01:30;10.50;;;6.50;;
65599;SDS011;52272;-29.642;-50.764;2022-12-07T07:04:00;11.40;;;6.68;;
65599;SDS011;52272;-29.642;-50.764;2022-12-07T07:06:31;12.77;;;6.07;;
65599;SDS011;52272;-29.642;-50.764;2022-12-07T07:09:02;8.93;;;5.40;;
65599;SDS011;52272;-29.642;-50.764;2022-12-07T07:11:35;6.63;;;4.95;;
65599;SDS011;52272;-29.642;-50.764;2022-12-07T07:14:05;7.85;;;4.60;;
65599;SDS011;52272;-29.642;-50.764;2022-12-07T07:16:35;7.63;;;4.25;;
65599;SDS011;52272;-29.642;-50.764;2022-12-07T07:19:05;6.93;;;3.83;;
65599;SDS011;52272;-29.642;-50.764;2022-12-07T07:21:36;8.93;;;4.75;;
65599;SDS011;52272;-29.642;-50.764;2022-12-07T07:24:06;7.22;;;4.10;;
65599;SDS011;52272;-29.642;-50.764;2022-12-07T07:26:37;8.75;;;4.90;;
65599;SDS011;52272;-29.642;-50.764;2022-12-07T07:31:36;7.35;;;5.20;;
65599;SDS011;52272;-29.642;-50.764;2022-12-07T07:34:07;13.50;;;5.25;;
65599;SDS011;52272;-29.642;-50.764;2022-12-07T07:39:06;5.45;;;4.63;;
65599;SDS011;52272;-29.642;-50.764;2022-12-07T07:41:37;6.97;;;3.65;;
65599;SDS011;52272;-29.642;-50.764;2022-12-07T07:44:12;6.35;;;4.53;;
65599;SDS011;52272;-29.642;-50.764;2022-12-07T07:46:43;9.18;;;4.60;;
65599;SDS011;52272;-29.642;-50.764;2022-12-07T07:49:13;5.30;;;3.95;;
65599;SDS011;52272;-29.642;-50.764;2022-12-07T07:51:44;6.13;;;4.15;;
65599;SDS011;52272;-29.642;-50.764;2022-12-07T07:54:14;4.25;;;3.85;;
65599;SDS011;52272;-29.642;-50.764;2022-12-07T07:56:45;6.30;;;3.70;;
65599;SDS011;52272;-29.642;-50.764;2022-12-07T07:59:15;25.42;;;4.82;;
65599;SDS011;52272;-29.642;-50.764;2022-12-07T08:01:46;26.92;;;5.90;;
65599;SDS011;52272;-29.642;-50.764;2022-12-07T08:04:16;117.95;;;8.32;;
65599;SDS011;52272;-29.642;-50.764;2022-12-07T08:06:47;95.72;;;9.60;;
65599;SDS011;52272;-29.642;-50.764;2022-12-07T08:09:17;104.05;;;9.45;;
65599;SDS011;52272;-29.642;-50.764;2022-12-07T08:11:47;30.05;;;7.68;;
65599;SDS011;52272;-29.642;-50.764;2022-12-07T08:14:17;10.10;;;5.55;;
65599;SDS011;52272;-29.642;-50.764;2022-12-07T08:16:48;29.17;;;9.35;;
65599;SDS011;52272;-29.642;-50.764;2022-12-07T08:19:18;68.95;;;11.48;;
65599;SDS011;52272;-29.642;-50.764;2022-12-07T08:21:49;149.90;;;16.13;;
65599;SDS011;52272;-29.642;-50.764;2022-12-07T08:24:19;43.45;;;9.15;;
65599;SDS011;52272;-29.642;-50.764;2022-12-07T08:26:49;14.60;;;5.80;;
65599;SDS011;52272;-29.642;-50.764;2022-12-07T08:31:50;9.60;;;6.15;;
65599;SDS011;52272;-29.642;-50.764;2022-12-07T08:34:19;7.50;;;5.63;;
65599;SDS011;52272;-29.642;-50.764;2022-12-07T08:36:50;7.82;;;5.65;;
65599;SDS011;52272;-29.642;-50.764;2022-12-07T08:39:20;20.42;;;7.00;;
65599;SDS011;52272;-29.642;-50.764;2022-12-07T08:41:59;19.42;;;5.75;;
65599;SDS011;52272;-29.642;-50.764;2022-12-07T08:44:30;25.00;;;5.43;;
65599;SDS011;52272;-29.642;-50.764;2022-12-07T08:47:02;30.73;;;5.70;;
65599;SDS011;52272;-29.642;-50.764;2022-12-07T08:49:39;23.60;;;6.40;;
65599;SDS011;52272;-29.642;-50.764;2022-12-07T08:52:13;153.75;;;13.52;;
65599;SDS011;52272;-29.642;-50.764;2022-12-07T08:57:14;138.05;;;11.73;;
65599;SDS011;52272;-29.642;-50.764;2022-12-07T09:04:44;64.03;;;11.82;;
65599;SDS011;52272;-29.642;-50.764;2022-12-07T09:09:44;28.55;;;9.82;;
65599;SDS011;52272;-29.642;-50.764;2022-12-07T09:12:14;17.80;;;7.90;;
65599;SDS011;52272;-29.642;-50.764;2022-12-07T09:14:45;17.35;;;6.45;;
65599;SDS011;52272;-29.642;-50.764;2022-12-07T09:17:17;14.52;;;7.20;;
65599;SDS011;52272;-29.642;-50.764;2022-12-07T09:19:48;18.48;;;6.70;;
65599;SDS011;52272;-29.642;-50.764;2022-12-07T09:22:18;7.80;;;4.90;;
65599;SDS011;52272;-29.642;-50.764;2022-12-07T09:24:48;11.60;;;4.90;;
65599;SDS011;52272;-29.642;-50.764;2022-12-07T09:27:18;6.80;;;3.45;;
65599;SDS011;52272;-29.642;-50.764;2022-12-07T09:29:48;9.65;;;2.97;;
65599;SDS011;52272;-29.642;-50.764;2022-12-07T09:32:19;6.00;;;2.60;;
65599;SDS011;52272;-29.642;-50.764;2022-12-07T09:34:49;3.15;;;2.30;;
65599;SDS011;52272;-29.642;-50.764;2022-12-07T09:37:20;6.32;;;2.10;;
65599;SDS011;52272;-29.642;-50.764;2022-12-07T09:39:50;9.23;;;2.38;;
65599;SDS011;52272;-29.642;-50.764;2022-12-07T09:42:26;6.60;;;2.83;;
65599;SDS011;52272;-29.642;-50.764;2022-12-07T09:45:19;7.28;;;2.05;;
65599;SDS011;52272;-29.642;-50.764;2022-12-07T09:47:54;2.28;;;1.88;;
65599;SDS011;52272;-29.642;-50.764;2022-12-07T09:50:24;5.90;;;1.58;;
65599;SDS011;52272;-29.642;-50.764;2022-12-07T09:53:08;6.65;;;1.67;;
65599;SDS011;52272;-29.642;-50.764;2022-12-07T09:55:43;3.08;;;1.30;;
65599;SDS011;52272;-29.642;-50.764;2022-12-07T09:58:24;5.55;;;1.33;;
65599;SDS011;52272;-29.642;-50.764;2022-12-07T10:03:42;7.93;;;1.40;;
65599;SDS011;52272;-29.642;-50.764;2022-12-07T10:06:18;4.63;;;1.20;;
65599;SDS011;52272;-29.642;-50.764;2022-12-07T10:08:49;2.00;;;0.82;;
65599;SDS011;52272;-29.642;-50.764;2022-12-07T10:11:20;2.60;;;1.20;;
65599;SDS011;52272;-29.642;-50.764;2022-12-07T10:13:53;4.43;;;1.35;;
65599;SDS011;52272;-29.642;-50.764;2022-12-07T10:16:35;2.55;;;0.98;;
65599;SDS011;52272;-29.642;-50.764;2022-12-07T10:22:01;6.07;;;1.00;;
65599;SDS011;52272;-29.642;-50.764;2022-12-07T10:24:46;2.83;;;1.08;;
65599;SDS011;52272;-29.642;-50.764;2022-12-07T10:27:18;6.30;;;1.42;;
65599;SDS011;52272;-29.642;-50.764;2022-12-07T10:29:51;4.60;;;1.42;;
65599;SDS011;52272;-29.642;-50.764;2022-12-07T10:32:35;7.18;;;1.50;;
65599;SDS011;52272;-29.642;-50.764;2022-12-07T10:35:26;3.13;;;1.30;;
65599;SDS011;52272;-29.642;-50.764;2022-12-07T10:37:59;3.67;;;1.50;;
65599;SDS011;52272;-29.642;-50.764;2022-12-07T10:40:31;3.78;;;1.50;;
65599;SDS011;52272;-29.642;-50.764;2022-12-07T11:04:54;3.85;;;1.52;;
65599;SDS011;52272;-29.642;-50.764;2022-12-07T11:16:48;3.28;;;1.50;;
65599;SDS011;52272;-29.642;-50.764;2022-12-07T11:25:02;4.13;;;1.60;;
65599;SDS011;52272;-29.642;-50.764;2022-12-07T11:27:44;8.65;;;1.75;;
65599;SDS011;52272;-29.642;-50.764;2022-12-07T11:30:53;2.08;;;1.30;;
65599;SDS011;52272;-29.642;-50.764;2022-12-07T11:33:52;7.03;;;1.70;;
65599;SDS011;52272;-29.642;-50.764;2022-12-07T11:36:40;4.30;;;1.55;;
65599;SDS011;52272;-29.642;-50.764;2022-12-07T11:42:10;5.22;;;1.60;;
65599;SDS011;52272;-29.642;-50.764;2022-12-07T11:44:53;2.05;;;1.42;;
65599;SDS011;52272;-29.642;-50.764;2022-12-07T11:50:38;4.05;;;1.88;;
65599;SDS011;52272;-29.642;-50.764;2022-12-07T11:53:24;3.10;;;1.50;;
65599;SDS011;52272;-29.642;-50.764;2022-12-07T11:56:12;5.20;;;1.58;;
65599;SDS011;52272;-29.642;-50.764;2022-12-07T11:58:53;4.03;;;1.70;;
65599;SDS011;52272;-29.642;-50.764;2022-12-07T12:01:42;4.80;;;1.98;;
65599;SDS011;52272;-29.642;-50.764;2022-12-07T12:04:25;5.70;;;1.88;;
65599;SDS011;52272;-29.642;-50.764;2022-12-07T12:06:57;6.28;;;1.70;;
65599;SDS011;52272;-29.642;-50.764;2022-12-07T12:09:53;3.65;;;1.90;;
65599;SDS011;52272;-29.642;-50.764;2022-12-07T12:15:38;4.68;;;1.80;;
65599;SDS011;52272;-29.642;-50.764;2022-12-07T12:18:37;5.22;;;2.20;;
65599;SDS011;52272;-29.642;-50.764;2022-12-07T12:21:12;4.00;;;1.75;;
65599;SDS011;52272;-29.642;-50.764;2022-12-07T12:24:00;4.95;;;2.10;;
65599;SDS011;52272;-29.642;-50.764;2022-12-07T12:26:50;4.85;;;1.85;;
65599;SDS011;52272;-29.642;-50.764;2022-12-07T12:29:27;4.88;;;1.88;;
65599;SDS011;52272;-29.642;-50.764;2022-12-07T12:32:11;5.60;;;1.35;;
65599;SDS011;52272;-29.642;-50.764;2022-12-07T12:42:50;6.22;;;1.73;;
65599;SDS011;52272;-29.642;-50.764;2022-12-07T12:45:25;6.30;;;1.77;;
65599;SDS011;52272;-29.642;-50.764;2022-12-07T12:48:01;3.35;;;1.70;;
65599;SDS011;52272;-29.642;-50.764;2022-12-07T12:50:49;6.10;;;1.67;;
65599;SDS011;52272;-29.642;-50.764;2022-12-07T12:54:05;5.15;;;1.80;;
65599;SDS011;52272;-29.642;-50.764;2022-12-07T12:59:28;4.15;;;1.90;;
65599;SDS011;52272;-29.642;-50.764;2022-12-07T13:18:43;5.18;;;1.63;;
65599;SDS011;52272;-29.642;-50.764;2022-12-07T13:21:40;4.68;;;1.48;;
65599;SDS011;52272;-29.642;-50.764;2022-12-07T13:24:06;2.65;;;1.60;;
65599;SDS011;52272;-29.642;-50.764;2022-12-07T13:26:41;3.63;;;1.60;;
65599;SDS011;52272;-29.642;-50.764;2022-12-07T13:29:15;3.40;;;1.40;;
65599;SDS011;52272;-29.642;-50.764;2022-12-07T13:31:50;3.88;;;1.80;;
65599;SDS011;52272;-29.642;-50.764;2022-12-07T13:37:01;1.50;;;1.40;;
65599;SDS011;52272;-29.642;-50.764;2022-12-07T13:39:49;4.03;;;1.30;;
65599;SDS011;52272;-29.642;-50.764;2022-12-07T13:44:58;5.85;;;1.73;;
65599;SDS011;52272;-29.642;-50.764;2022-12-07T13:50:22;1.88;;;1.40;;
65599;SDS011;52272;-29.642;-50.764;2022-12-07T13:52:55;4.25;;;1.80;;
65599;SDS011;52272;-29.642;-50.764;2022-12-07T13:55:29;1.45;;;1.05;;
65599;SDS011;52272;-29.642;-50.764;2022-12-07T13:58:00;1.58;;;1.20;;
65599;SDS011;52272;-29.642;-50.764;2022-12-07T14:00:30;2.17;;;1.50;;
65599;SDS011;52272;-29.642;-50.764;2022-12-07T14:03:25;2.17;;;1.70;;
65599;SDS011;52272;-29.642;-50.764;2022-12-07T14:06:10;1.45;;;1.20;;
65599;SDS011;52272;-29.642;-50.764;2022-12-07T14:11:59;2.58;;;1.60;;
65599;SDS011;52272;-29.642;-50.764;2022-12-07T14:14:36;1.73;;;1.23;;
65599;SDS011;52272;-29.642;-50.764;2022-12-07T14:17:17;3.90;;;1.42;;
65599;SDS011;52272;-29.642;-50.764;2022-12-07T14:22:33;4.38;;;1.20;;
65599;SDS011;52272;-29.642;-50.764;2022-12-07T14:27:48;1.52;;;1.23;;
65599;SDS011;52272;-29.642;-50.764;2022-12-07T14:30:19;2.53;;;1.30;;
65599;SDS011;52272;-29.642;-50.764;2022-12-07T14:32:59;3.22;;;1.10;;
65599;SDS011;52272;-29.642;-50.764;2022-12-07T14:35:32;2.75;;;1.27;;
65599;SDS011;52272;-29.642;-50.764;2022-12-07T14:38:02;2.83;;;1.40;;
65599;SDS011;52272;-29.642;-50.764;2022-12-07T14:40:31;1.45;;;1.08;;
65599;SDS011;52272;-29.642;-50.764;2022-12-07T14:43:03;5.40;;;1.50;;
65599;SDS011;52272;-29.642;-50.764;2022-12-07T14:45:38;1.10;;;1.00;;
65599;SDS011;52272;-29.642;-50.764;2022-12-07T14:48:11;2.90;;;1.30;;
65599;SDS011;52272;-29.642;-50.764;2022-12-07T14:51:02;3.20;;;1.10;;
65599;SDS011;52272;-29.642;-50.764;2022-12-07T14:53:54;2.65;;;1.30;;
65599;SDS011;52272;-29.642;-50.764;2022-12-07T14:56:24;2.55;;;1.02;;
65599;SDS011;52272;-29.642;-50.764;2022-12-07T14:58:58;2.35;;;1.20;;
65599;SDS011;52272;-29.642;-50.764;2022-12-07T15:01:28;2.42;;;1.30;;
65599;SDS011;52272;-29.642;-50.764;2022-12-07T15:03:59;3.53;;;1.27;;
65599;SDS011;52272;-29.642;-50.764;2022-12-07T15:06:29;3.33;;;1.42;;
65599;SDS011;52272;-29.642;-50.764;2022-12-07T15:09:00;2.45;;;1.23;;
65599;SDS011;52272;-29.642;-50.764;2022-12-07T15:11:30;1.48;;;1.13;;
65599;SDS011;52272;-29.642;-50.764;2022-12-07T15:14:01;2.00;;;1.25;;
65599;SDS011;52272;-29.642;-50.764;2022-12-07T15:19:30;1.10;;;0.93;;
65599;SDS011;52272;-29.642;-50.764;2022-12-07T15:22:01;2.42;;;1.15;;
65599;SDS011;52272;-29.642;-50.764;2022-12-07T15:24:31;3.72;;;1.30;;
65599;SDS011;52272;-29.642;-50.764;2022-12-07T15:27:03;2.55;;;1.17;;
65599;SDS011;52272;-29.642;-50.764;2022-12-07T15:29:33;1.50;;;1.25;;
65599;SDS011;52272;-29.642;-50.764;2022-12-07T15:32:03;2.25;;;1.17;;
65599;SDS011;52272;-29.642;-50.764;2022-12-07T15:34:34;1.67;;;1.42;;
65599;SDS011;52272;-29.642;-50.764;2022-12-07T15:37:07;2.42;;;1.17;;
65599;SDS011;52272;-29.642;-50.764;2022-12-07T15:39:38;4.22;;;1.50;;
65599;SDS011;52272;-29.642;-50.764;2022-12-07T15:42:08;4.78;;;1.20;;
65599;SDS011;52272;-29.642;-50.764;2022-12-07T15:44:38;1.55;;;1.00;;
65599;SDS011;52272;-29.642;-50.764;2022-12-07T15:47:27;2.00;;;1.35;;
65599;SDS011;52272;-29.642;-50.764;2022-12-07T15:49:57;1.80;;;1.10;;
65599;SDS011;52272;-29.642;-50.764;2022-12-07T15:52:27;1.70;;;1.00;;
65599;SDS011;52272;-29.642;-50.764;2022-12-07T15:55:00;1.52;;;1.10;;
65599;SDS011;52272;-29.642;-50.764;2022-12-07T15:57:34;2.83;;;1.40;;
65599;SDS011;52272;-29.642;-50.764;2022-12-07T16:00:06;2.15;;;1.08;;
65599;SDS011;52272;-29.642;-50.764;2022-12-07T16:02:38;2.05;;;1.08;;
65599;SDS011;52272;-29.642;-50.764;2022-12-07T16:05:08;3.20;;;0.90;;
65599;SDS011;52272;-29.642;-50.764;2022-12-07T16:07:38;2.38;;;1.10;;
65599;SDS011;52272;-29.642;-50.764;2022-12-07T16:10:09;0.70;;;0.70;;
65599;SDS011;52272;-29.642;-50.764;2022-12-07T16:12:39;1.00;;;0.80;;
65599;SDS011;52272;-29.642;-50.764;2022-12-07T16:15:10;2.63;;;1.10;;
65599;SDS011;52272;-29.642;-50.764;2022-12-07T16:17:40;2.75;;;0.82;;
65599;SDS011;52272;-29.642;-50.764;2022-12-07T16:20:10;4.90;;;1.13;;
65599;SDS011;52272;-29.642;-50.764;2022-12-07T16:22:41;4.30;;;1.50;;
65599;SDS011;52272;-29.642;-50.764;2022-12-07T16:25:11;2.85;;;0.80;;
65599;SDS011;52272;-29.642;-50.764;2022-12-07T16:27:41;2.35;;;1.00;;
65599;SDS011;52272;-29.642;-50.764;2022-12-07T16:30:12;1.20;;;1.02;;
65599;SDS011;52272;-29.642;-50.764;2022-12-07T16:32:44;1.02;;;0.70;;
65599;SDS011;52272;-29.642;-50.764;2022-12-07T16:35:14;1.92;;;0.88;;
65599;SDS011;52272;-29.642;-50.764;2022-12-07T16:37:45;1.15;;;1.00;;
65599;SDS011;52272;-29.642;-50.764;2022-12-07T16:40:15;0.95;;;0.77;;
65599;SDS011;52272;-29.642;-50.764;2022-12-07T16:42:46;1.98;;;1.08;;
65599;SDS011;52272;-29.642;-50.764;2022-12-07T16:45:16;2.88;;;1.10;;
65599;SDS011;52272;-29.642;-50.764;2022-12-07T16:47:48;3.15;;;0.80;;
65599;SDS011;52272;-29.642;-50.764;2022-12-07T16:50:18;1.17;;;0.73;;
65599;SDS011;52272;-29.642;-50.764;2022-12-07T16:52:49;1.80;;;0.90;;
65599;SDS011;52272;-29.642;-50.764;2022-12-07T17:28:29;0.75;;;0.75;;
65599;SDS011;52272;-29.642;-50.764;2022-12-07T17:31:01;0.95;;;0.80;;
65599;SDS011;52272;-29.642;-50.764;2022-12-07T17:33:35;1.05;;;0.80;;
65599;SDS011;52272;-29.642;-50.764;2022-12-07T17:36:14;3.65;;;0.80;;
65599;SDS011;52272;-29.642;-50.764;2022-12-07T17:38:45;3.00;;;0.77;;
65599;SDS011;52272;-29.642;-50.764;2022-12-07T17:41:26;2.70;;;1.00;;
65599;SDS011;52272;-29.642;-50.764;2022-12-07T17:44:16;1.80;;;1.00;;
65599;SDS011;52272;-29.642;-50.764;2022-12-07T17:46:50;1.85;;;0.73;;
65599;SDS011;52272;-29.642;-50.764;2022-12-07T17:49:27;0.93;;;0.75;;
65599;SDS011;52272;-29.642;-50.764;2022-12-07T17:51:57;2.03;;;1.00;;
65599;SDS011;52272;-29.642;-50.764;2022-12-07T17:54:46;3.83;;;0.70;;
65599;SDS011;52272;-29.642;-50.764;2022-12-07T17:57:16;0.50;;;0.50;;
65599;SDS011;52272;-29.642;-50.764;2022-12-07T17:59:47;0.70;;;0.60;;
65599;SDS011;52272;-29.642;-50.764;2022-12-07T18:02:18;2.25;;;0.70;;
65599;SDS011;52272;-29.642;-50.764;2022-12-07T18:04:47;3.30;;;1.00;;
65599;SDS011;52272;-29.642;-50.764;2022-12-07T18:07:18;0.77;;;0.77;;
65599;SDS011;52272;-29.642;-50.764;2022-12-07T18:09:48;2.70;;;0.70;;
65599;SDS011;52272;-29.642;-50.764;2022-12-07T18:12:19;1.40;;;0.90;;
65599;SDS011;52272;-29.642;-50.764;2022-12-07T18:14:49;0.60;;;0.60;;
65599;SDS011;52272;-29.642;-50.764;2022-12-07T18:17:22;0.50;;;0.50;;
65599;SDS011;52272;-29.642;-50.764;2022-12-07T18:19:52;0.80;;;0.68;;
65599;SDS011;52272;-29.642;-50.764;2022-12-07T18:22:22;1.85;;;0.75;;
65599;SDS011;52272;-29.642;-50.764;2022-12-07T18:24:53;1.33;;;0.60;;
65599;SDS011;52272;-29.642;-50.764;2022-12-07T18:27:23;1.27;;;0.60;;
65599;SDS011;52272;-29.642;-50.764;2022-12-07T18:29:54;5.53;;;0.77;;